Tuesday, September 18, 2018, 11:13 PM EDT
Back to Local

KBLM, Belmar-farmingdale

Location: Farmingdale, NJ, United States Lat: 40.183
Local Time: 11:13 PM EDT ( 3:13 GMT) Lon: -74.133
Time Zone: US/Eastern Elev: 157 ft

Show me the last for .
Show Decoded

2018-09-18 22:56 METAR KBLM 190256Z AUTO 00000KT 10SM CLR 20/19 A2980 RMK AO2 SLP094 T02000194
                 51003 =
2018-09-18 21:56 METAR KBLM 190156Z AUTO 31005KT 10SM CLR 20/19 A2980 RMK AO2 SLP093 T02000194 =
2018-09-18 20:56 METAR KBLM 190056Z AUTO 35004KT 10SM SCT095 21/20 A2980 RMK AO2 SLP093 T02110200
                 =
2018-09-18 19:56 METAR KBLM 182356Z AUTO 01005KT 10SM FEW009 OVC080 21/21 A2979 RMK AO2 SLP092
                 60052 T02110206 10261 20211 53013 =
2018-09-18 19:30 METAR KBLM 182330Z AUTO 36005KT 10SM SCT009 BKN060 OVC075 21/21 A2979 RMK AO2 =
2018-09-18 18:56 METAR KBLM 182256Z AUTO 01008KT 10SM BKN060 BKN080 OVC110 22/21 A2978 RMK AO2
                 SLP086 T02170206 =
2018-09-18 18:24 METAR KBLM 182224Z AUTO 02007KT 10SM SCT006 BKN050 OVC065 22/21 A2977 RMK AO2 =
2018-09-18 17:56 METAR KBLM 182156Z AUTO 36007G14KT 10SM BKN008 OVC013 22/21 A2976 RMK AO2 LTG
                 DSNT SE RAE48 SLP081 P0005 T02170206 =
2018-09-18 16:56 METAR KBLM 182056Z AUTO 35012KT 10SM -RA OVC008 22/21 A2976 RMK AO2 WSHFT 2025
                 RAE15B49 CIG 005V010 SLP079 P0001 60047 T02220211 53005 =
2018-09-18 16:45 METAR KBLM 182045Z AUTO 36011KT 10SM BKN006 OVC049 22/22 A2975 RMK AO2 WSHFT
                 2025 RAE15 CIG 005V009 P0001 =
2018-09-18 16:33 METAR KBLM 182033Z AUTO 34012G18KT 10SM BKN006 BKN036 OVC049 23/22 A2975 RMK AO2
                 LTG DSNT SE AND S RAE15 P0001 =
2018-09-18 16:05 METAR KBLM 182005Z AUTO 27004KT 10SM -RA FEW006 SCT045 OVC065 24/23 A2973 RMK
                 AO2 LTG DSNT SE AND S P0000 =
2018-09-18 15:56 METAR KBLM 181956Z AUTO 00000KT 10SM -RA FEW050 OVC065 24/23 A2974 RMK AO2 LTG
                 DSNT SE-SW TSE00 SLP072 P0002 T02390233 =
2018-09-18 15:06 METAR KBLM 181906Z AUTO 26004KT 6SM -RA BR FEW046 BKN070 OVC090 24/23 A2974 RMK
                 AO2 LTG DSNT SE-SW TSE00 P0001 =
2018-09-18 14:56 METAR KBLM 181856Z AUTO 27004KT 7SM VCTS -RA FEW046 BKN075 OVC090 24/23 A2974
                 RMK AO2 LTG DSNT SE AND S TSE22B45 SLP073 P0044 T02390233 =
2018-09-18 14:51 METAR KBLM 181851Z AUTO 26005KT 9SM VCTS -RA FEW019 BKN070 OVC090 24/23 A2974
                 RMK AO2 LTG DSNT SE AND S TSE22B45 P0043 =
2018-09-18 14:28 METAR KBLM 181828Z AUTO 26008KT 9SM -RA FEW014 SCT028 OVC034 24/23 A2975 RMK AO2
                 LTG DSNT ALQDS TSE22 P0041 =
2018-09-18 14:19 METAR KBLM 181819Z AUTO 28006KT 3SM TSRA BR OVC034 24/24 A2974 RMK AO2 LTG DSNT
                 ALQDS P0041 =
2018-09-18 14:03 METAR KBLM 181803Z AUTO 27009KT 1 1/2SM +TSRA BR BKN034 BKN043 OVC065 25/24
                 A2976 RMK AO2 VIS 3/4V5 LTG DSNT ALQDS P0021 =
2018-09-18 13:56 METAR KBLM 181756Z AUTO 29009KT 7SM TSRA SCT036 BKN043 OVC080 26/24 A2975 RMK
                 AO2 LTG DSNT ALQDS TSB39RAB56 SLP077 P0001 60001 T02610239 10311 20250 55007 =
2018-09-18 13:45 METAR KBLM 181745Z AUTO 28007KT 240V300 10SM VCTS FEW037 BKN070 OVC080 28/22
                 A2975 RMK AO2 LTG DSNT ALQDS TSB39 =
2018-09-18 12:56 METAR KBLM 181656Z AUTO 22011G21KT 10SM SCT029 BKN049 BKN060 30/23 A2974 RMK AO2
                 LTG DSNT ALQDS SLP074 T03000228 =
2018-09-18 12:10 METAR KBLM 181610Z AUTO 23015G19KT 10SM SCT025 BKN035 BKN055 29/23 A2976 RMK AO2
                 LTG DSNT N AND NW =
2018-09-18 11:56 METAR KBLM 181556Z AUTO 21009G16KT 10SM BKN022 BKN036 OVC060 29/23 A2975 RMK AO2
                 LTG DSNT N AND NW SLP076 T02940233 =
2018-09-18 10:56 METAR KBLM 181456Z AUTO 23009KT 10SM SCT014 OVC019 27/23 A2978 RMK AO2 LTG DSNT
                 W SLP085 60000 T02720233 58012 =
2018-09-18 10:35 METAR KBLM 181435Z AUTO 19010G15KT 10SM BKN015 OVC032 28/24 A2978 RMK AO2 =
2018-09-18 09:56 METAR KBLM 181356Z AUTO 21008G16KT 10SM BKN013 BKN036 OVC043 26/24 A2979 RMK AO2
                 SLP091 T02610239 =
2018-09-18 08:56 METAR KBLM 181256Z AUTO 21008KT 10SM OVC011 25/24 A2980 RMK AO2 RAB07E21 SLP094
                 P0000 T02500239 =
2018-09-18 07:56 METAR KBLM 181156Z AUTO 19007KT 10SM OVC011 25/23 A2981 RMK AO2 SLP096 T02500233
                 10250 20244 56004 =
2018-09-18 06:56 METAR KBLM 181056Z AUTO 19008KT 10SM OVC011 25/23 A2981 RMK AO2 SLP097 T02500228
                 =
2018-09-18 05:56 METAR KBLM 180956Z AUTO 18007G14KT 150V210 10SM OVC011 24/23 A2981 RMK AO2
                 SLP097 T02440228 =
2018-09-18 04:56 METAR KBLM 180856Z AUTO 19009KT 10SM OVC011 24/23 A2982 RMK AO2 SLP101 T02440228
                 56023 =
2018-09-18 03:56 METAR KBLM 180756Z AUTO 18009G14KT 10SM OVC013 24/23 A2984 RMK AO2 SLP107
                 T02440228 =
2018-09-18 02:56 METAR KBLM 180656Z AUTO 18008KT 10SM OVC013 24/22 A2986 RMK AO2 SLP115 T02440222
                 =
2018-09-18 01:56 METAR KBLM 180556Z AUTO 18011G15KT 10SM OVC013 24/22 A2989 RMK AO2 SLP123 60000
                 T02440222 10244 20228 58021 =
2018-09-18 00:56 METAR KBLM 180456Z AUTO 16006KT 10SM BKN013 OVC018 24/22 A2991 RMK AO2 SLP132
                 T02390222 402610172 =
2018-09-17 23:56 METAR KBLM 180356Z AUTO 16010G14KT 10SM BKN013 OVC070 24/22 A2993 RMK AO2 SLP139
                 T02390217 TSNO =
2018-09-17 23:39 METAR KBLM 180339Z AUTO 15007G15KT 10SM BKN013 OVC070 24/22 A2994 RMK AO2 TSNO =

Support USWX by starting your Amazon purchase here.